Time;durP1;ratioP1;P1;durP2;ratioP2;P2;SDS_P1;SDS_P2;PMS_P1;PMS_P2;Temp;Humidity;BMP_temperature;BMP_pressure;BME280_temperature;BME280_humidity;BME280_pressure;Samples;Min_cycle;Max_cycle;Signal;HPM_P1;HPM_P2
2023/12/22 00:12:07;;;;;;;37.50;11.30;;;;;;;7.58;81.55;96274.77;682169;1261;139386;-81
2023/12/22 00:27:44;;;;;;;85.80;26.50;;;;;;;7.70;79.30;96257.61;682249;1259;138987;-81
2023/12/22 00:43:21;;;;;;;89.30;24.90;;;;;;;7.90;77.82;96248.23;682123;1265;139468;-79
2023/12/22 00:58:58;;;;;;;36.50;14.10;;;;;;;7.89;76.89;96255.83;682166;1260;138598;-82
2023/12/22 01:14:41;;;;;;;130.70;38.00;;;;;;;8.01;75.75;96262.60;682261;1262;140184;-80
2023/12/22 01:30:18;;;;;;;46.70;14.90;;;;;;;7.99;75.29;96251.39;682068;1260;140268;-82
2023/12/22 01:46:02;;;;;;;15.90;4.10;;;;;;;7.51;78.80;96278.83;682179;1261;138740;-83
2023/12/22 02:01:39;;;;;;;79.10;23.90;;;;;;;6.82;82.97;96288.05;681985;1261;138442;-83
2023/12/22 02:17:50;;;;;;;18.40;5.60;;;;;;;7.02;84.43;96288.91;681917;1261;139221;-82
2023/12/22 02:33:28;;;;;;;10.50;2.80;;;;;;;7.01;83.65;96269.87;674228;1264;10141203;-82
2023/12/22 02:49:05;;;;;;;19.50;3.60;;;;;;;7.13;82.89;96254.47;682153;1259;138910;-80
2023/12/22 03:04:42;;;;;;;4.40;2.00;;;;;;;6.89;84.19;96239.77;682106;1262;138336;-81
2023/12/22 03:20:19;;;;;;;6.80;2.30;;;;;;;6.74;85.31;96256.23;681991;1264;138219;-81
2023/12/22 03:35:56;;;;;;;13.60;2.80;;;;;;;6.66;86.28;96266.66;682091;1264;139392;-81
2023/12/22 03:51:33;;;;;;;8.80;3.00;;;;;;;6.76;85.83;96296.73;682330;1259;139272;-81
2023/12/22 04:07:10;;;;;;;45.30;14.50;;;;;;;6.79;85.15;96291.48;681942;1263;138168;-80
2023/12/22 04:22:49;;;;;;;12.40;5.80;;;;;;;6.23;86.27;96272.41;682176;1259;138778;-82
2023/12/22 04:38:26;;;;;;;;;;;;;;;6.51;84.99;96331.50;682134;1264;139385;-82
2023/12/22 04:54:03;;;;;;;24.30;5.40;;;;;;;6.57;83.97;96323.76;682237;1260;125141;-81
2023/12/22 05:09:41;;;;;;;15.90;3.60;;;;;;;6.31;81.64;96326.84;682158;1263;139201;-81
2023/12/22 05:25:19;;;;;;;;;;;;;;;6.65;76.76;96337.79;681956;1264;139845;-81
2023/12/22 05:40:56;;;;;;;9.80;3.70;;;;;;;6.73;72.93;96340.36;682025;1263;127233;-81
2023/12/22 05:56:33;;;;;;;20.10;5.20;;;;;;;6.62;70.60;96337.98;682245;1264;138745;-81
2023/12/22 06:12:12;;;;;;;13.50;3.20;;;;;;;6.48;68.65;96378.65;681998;1264;139511;-81
2023/12/22 06:27:48;;;;;;;;;;;;;;;6.57;66.95;96396.41;682192;1263;138414;-80
2023/12/22 06:43:25;;;;;;;13.90;3.80;;;;;;;6.44;65.64;96407.75;682061;1266;125834;-81
2023/12/22 06:59:03;;;;;;;17.00;4.40;;;;;;;6.24;64.32;96407.09;682102;1264;139112;-82
2023/12/22 07:14:42;;;;;;;;;;;;;;;6.09;62.95;96399.17;681697;1265;138535;-82
2023/12/22 07:30:19;;;;;;;;;;;;;;;6.11;61.85;96414.30;681702;1264;125026;-80
2023/12/22 07:45:56;;;;;;;27.30;7.80;;;;;;;5.78;62.05;96435.05;681531;1265;125820;-82
2023/12/22 08:01:33;;;;;;;33.00;11.70;;;;;;;5.84;62.58;96436.67;681543;1266;138506;-82
2023/12/22 08:17:10;;;;;;;36.80;13.30;;;;;;;6.03;62.92;96430.21;681838;1265;139577;-83
2023/12/22 08:32:47;;;;;;;22.40;7.60;;;;;;;5.55;69.57;96464.29;681609;1265;138681;-81
2023/12/22 08:48:28;;;;;;;27.40;9.10;;;;;;;4.94;75.29;96473.33;682040;1260;139047;-81
2023/12/22 09:04:08;;;;;;;35.20;12.60;;;;;;;5.13;75.70;96465.48;682044;1265;139703;-81
2023/12/22 09:19:46;;;;;;;60.10;17.00;;;;;;;5.93;73.22;96449.92;681624;1265;138696;-84
2023/12/22 09:35:25;;;;;;;59.50;17.10;;;;;;;6.30;70.97;96429.67;682143;1263;139429;-84
2023/12/22 09:51:02;;;;;;;22.70;7.50;;;;;;;6.57;67.63;96406.39;682050;1266;138867;-82
2023/12/22 10:06:39;;;;;;;77.30;28.80;;;;;;;6.59;66.00;96392.09;682034;1266;138967;-83
2023/12/22 10:22:16;;;;;;;8.00;2.90;;;;;;;6.68;66.03;96368.45;682043;1264;139386;-84
2023/12/22 10:37:53;;;;;;;11.30;3.80;;;;;;;6.34;66.94;96359.25;682142;1267;138612;-83
2023/12/22 10:53:34;;;;;;;19.40;7.40;;;;;;;6.10;67.95;96326.63;682177;1261;138483;-82
2023/12/22 11:09:17;;;;;;;23.10;9.40;;;;;;;6.28;68.42;96313.75;682332;1260;138459;-82
2023/12/22 11:24:56;;;;;;;60.50;23.60;;;;;;;6.20;68.59;96297.74;681874;1265;139161;-80
2023/12/22 11:40:35;;;;;;;17.20;7.10;;;;;;;6.10;70.70;96293.81;681824;1267;140596;-82
2023/12/22 11:56:26;;;;;;;11.90;6.30;;;;;;;5.69;74.79;96288.66;681985;1265;138935;-83
2023/12/22 12:12:31;;;;;;;11.00;6.70;;;;;;;5.41;78.43;96266.96;682063;1263;138566;-82
2023/12/22 12:28:12;;;;;;;14.90;7.30;;;;;;;5.26;80.63;96278.44;682138;1264;138704;-83
2023/12/22 12:43:49;;;;;;;17.20;5.70;;;;;;;5.29;82.37;96282.75;681770;1260;138818;-81
2023/12/22 12:59:26;;;;;;;12.30;5.20;;;;;;;5.24;84.14;96289.42;681931;1262;138466;-81
2023/12/22 13:15:09;;;;;;;8.60;3.60;;;;;;;5.41;84.74;96289.52;681947;1261;139567;-82
2023/12/22 13:30:46;;;;;;;6.50;3.30;;;;;;;5.38;85.25;96294.39;681914;1260;138920;-79
2023/12/22 13:46:23;;;;;;;12.50;5.60;;;;;;;5.35;85.76;96299.30;681886;1265;138526;-81
2023/12/22 14:17:57;;;;;;;19.60;7.40;;;;;;;5.23;86.26;96324.27;646913;1308;545134;-76
2023/12/22 14:33:03;;;;;;;55.30;25.80;;;;;;;5.37;85.76;96336.05;665265;1269;138323;-76
2023/12/22 14:48:07;;;;;;;37.10;15.00;;;;;;;5.17;86.26;96358.98;665936;1272;138323;-72
2023/12/22 15:03:14;;;;;;;22.10;9.80;;;;;;;5.11;84.81;96380.23;662093;1275;138675;-70
2023/12/22 15:18:21;;;;;;;40.70;14.50;;;;;;;5.04;84.72;96399.27;662274;1272;138584;-69
2023/12/22 15:33:25;;;;;;;88.10;31.40;;;;;;;4.86;85.88;96419.77;662986;1275;139507;-68
2023/12/22 15:48:29;;;;;;;52.20;21.10;;;;;;;5.05;86.30;96440.96;668520;1279;138684;-67
2023/12/22 16:03:53;;;;;;;16.20;7.70;;;;;;;5.11;86.98;96445.82;660614;1276;138505;-71
2023/12/22 16:18:58;;;;;;;24.00;10.50;;;;;;;5.03;88.15;96458.69;665767;1272;137997;-68
2023/12/22 16:34:04;;;;;;;31.90;10.50;;;;;;;5.23;87.08;96465.09;660510;1272;138807;-70
2023/12/22 16:49:11;;;;;;;28.40;10.10;;;;;;;5.37;85.05;96492.40;671251;1273;141121;-70
2023/12/22 17:04:15;;;;;;;23.20;6.80;;;;;;;5.25;84.92;96514.31;663631;1273;139224;-70
2023/12/22 17:19:21;;;;;;;25.60;9.60;;;;;;;5.33;83.78;96546.16;662901;1273;138762;-69
2023/12/22 17:34:27;;;;;;;42.20;12.30;;;;;;;5.21;83.70;96591.25;662659;1285;139621;-68
2023/12/22 17:49:34;;;;;;;45.50;12.20;;;;;;;5.14;84.84;96620.05;659917;1269;140098;-66
2023/12/22 18:04:38;;;;;;;20.40;6.80;;;;;;;5.17;84.38;96654.42;661772;1273;139203;-72
2023/12/22 18:19:43;;;;;;;109.50;30.80;;;;;;;5.26;83.76;96661.33;668847;1276;138878;-69
2023/12/22 18:34:47;;;;;;;20.60;7.60;;;;;;;5.20;83.29;96670.88;662737;1281;140203;-70
2023/12/22 18:49:51;;;;;;;27.90;10.50;;;;;;;5.06;83.59;96696.14;667557;1270;138899;-72
2023/12/22 19:04:56;;;;;;;30.60;11.10;;;;;;;5.07;84.17;96722.59;664221;1288;139188;-73
2023/12/22 19:20:00;;;;;;;35.60;12.60;;;;;;;5.22;83.61;96734.91;667260;1266;140317;-71
2023/12/22 19:35:05;;;;;;;59.00;20.70;;;;;;;5.36;82.85;96745.48;663909;1274;140392;-70
2023/12/22 19:50:10;;;;;;;27.90;10.30;;;;;;;5.33;82.02;96767.77;663660;1266;140100;-74
2023/12/22 20:05:14;;;;;;;19.70;6.80;;;;;;;5.13;82.72;96769.25;663818;1269;138598;-72
2023/12/22 20:20:18;;;;;;;25.20;8.40;;;;;;;5.01;82.37;96773.70;665954;1265;140208;-69
2023/12/22 20:35:22;;;;;;;19.70;8.30;;;;;;;5.13;81.86;96796.60;664256;1263;138694;-71
2023/12/22 20:50:25;;;;;;;14.60;5.90;;;;;;;5.07;81.71;96823.23;663541;1264;139159;-71
2023/12/22 21:05:29;;;;;;;15.30;5.80;;;;;;;5.00;81.39;96846.15;663259;1267;139189;-69
2023/12/22 21:20:33;;;;;;;23.10;7.50;;;;;;;5.18;80.27;96844.34;663239;1266;138867;-72
2023/12/22 21:35:37;;;;;;;30.50;12.50;;;;;;;5.10;81.03;96857.84;663283;1266;139135;-71
2023/12/22 21:50:41;;;;;;;8.70;4.00;;;;;;;4.98;80.62;96864.20;664908;1279;139153;-71
2023/12/22 22:06:01;;;;;;;17.90;7.90;;;;;;;4.91;79.88;96868.91;665522;1270;140183;-76
2023/12/22 22:21:38;;;;;;;12.90;6.80;;;;;;;4.84;80.37;96882.41;667859;1279;140378;-68
2023/12/22 22:36:42;;;;;;;12.40;5.10;;;;;;;4.79;80.64;96890.06;664010;1270;139637;-69
2023/12/22 22:51:47;;;;;;;17.90;5.80;;;;;;;4.72;80.60;96905.40;665404;1272;138626;-65
2023/12/22 23:06:51;;;;;;;16.30;5.90;;;;;;;4.57;79.62;96911.68;663119;1266;139886;-68
2023/12/22 23:21:56;;;;;;;8.00;3.50;;;;;;;4.45;78.23;96904.76;662844;1276;140339;-74
2023/12/22 23:37:00;;;;;;;27.40;10.30;;;;;;;4.53;77.30;96935.63;663139;1274;139198;-70
2023/12/22 23:52:04;;;;;;;17.30;5.10;;;;;;;4.42;77.65;96959.20;662720;1266;139173;-67
